sensor_id;sensor_type;location;lat;lon;timestamp;P1;durP1;ratioP1;P2;durP2;ratioP2
10162;SDS011;5123;52.556;13.384;2024-02-28T00:00:11;23.77;;;13.67;;
10162;SDS011;5123;52.556;13.384;2024-02-28T00:02:44;24.63;;;13.63;;
10162;SDS011;5123;52.556;13.384;2024-02-28T00:05:17;27.30;;;12.97;;
10162;SDS011;5123;52.556;13.384;2024-02-28T00:07:49;28.23;;;14.07;;
10162;SDS011;5123;52.556;13.384;2024-02-28T00:10:24;26.00;;;13.63;;
10162;SDS011;5123;52.556;13.384;2024-02-28T00:12:58;23.63;;;13.77;;
10162;SDS011;5123;52.556;13.384;2024-02-28T00:15:31;23.00;;;12.83;;
10162;SDS011;5123;52.556;13.384;2024-02-28T00:18:04;27.97;;;14.93;;
10162;SDS011;5123;52.556;13.384;2024-02-28T00:20:37;23.17;;;13.20;;
10162;SDS011;5123;52.556;13.384;2024-02-28T00:23:10;18.37;;;12.50;;
10162;SDS011;5123;52.556;13.384;2024-02-28T00:25:43;24.33;;;13.07;;
10162;SDS011;5123;52.556;13.384;2024-02-28T00:28:17;26.37;;;13.87;;
10162;SDS011;5123;52.556;13.384;2024-02-28T00:30:50;19.83;;;12.47;;
10162;SDS011;5123;52.556;13.384;2024-02-28T00:33:23;20.67;;;12.13;;
10162;SDS011;5123;52.556;13.384;2024-02-28T00:35:56;26.00;;;12.70;;
10162;SDS011;5123;52.556;13.384;2024-02-28T00:38:28;25.60;;;13.23;;
10162;SDS011;5123;52.556;13.384;2024-02-28T00:41:01;23.73;;;13.13;;
10162;SDS011;5123;52.556;13.384;2024-02-28T00:43:35;24.03;;;13.37;;
10162;SDS011;5123;52.556;13.384;2024-02-28T00:46:07;20.60;;;11.57;;
10162;SDS011;5123;52.556;13.384;2024-02-28T00:48:43;23.40;;;12.30;;
10162;SDS011;5123;52.556;13.384;2024-02-28T00:51:15;17.47;;;10.23;;
10162;SDS011;5123;52.556;13.384;2024-02-28T00:53:48;25.97;;;12.90;;
10162;SDS011;5123;52.556;13.384;2024-02-28T00:56:21;23.83;;;12.63;;
10162;SDS011;5123;52.556;13.384;2024-02-28T00:58:57;20.60;;;12.40;;
10162;SDS011;5123;52.556;13.384;2024-02-28T01:01:29;23.93;;;12.73;;
10162;SDS011;5123;52.556;13.384;2024-02-28T01:04:02;20.90;;;12.17;;
10162;SDS011;5123;52.556;13.384;2024-02-28T01:06:35;22.50;;;11.90;;
10162;SDS011;5123;52.556;13.384;2024-02-28T01:09:08;21.40;;;12.60;;
10162;SDS011;5123;52.556;13.384;2024-02-28T01:11:42;27.00;;;13.23;;
10162;SDS011;5123;52.556;13.384;2024-02-28T01:14:16;21.67;;;11.83;;
10162;SDS011;5123;52.556;13.384;2024-02-28T01:16:51;19.97;;;12.33;;
10162;SDS011;5123;52.556;13.384;2024-02-28T01:19:24;21.07;;;12.33;;
10162;SDS011;5123;52.556;13.384;2024-02-28T01:21:56;24.67;;;11.53;;
10162;SDS011;5123;52.556;13.384;2024-02-28T01:24:29;22.33;;;12.87;;
10162;SDS011;5123;52.556;13.384;2024-02-28T01:27:02;19.23;;;12.57;;
10162;SDS011;5123;52.556;13.384;2024-02-28T01:29:36;24.03;;;13.47;;
10162;SDS011;5123;52.556;13.384;2024-02-28T01:32:11;21.80;;;12.33;;
10162;SDS011;5123;52.556;13.384;2024-02-28T01:34:44;22.50;;;13.47;;
10162;SDS011;5123;52.556;13.384;2024-02-28T01:37:17;23.73;;;13.13;;
10162;SDS011;5123;52.556;13.384;2024-02-28T01:39:50;21.53;;;12.63;;
10162;SDS011;5123;52.556;13.384;2024-02-28T01:42:22;18.60;;;11.47;;
10162;SDS011;5123;52.556;13.384;2024-02-28T01:44:56;19.07;;;11.67;;
10162;SDS011;5123;52.556;13.384;2024-02-28T01:47:29;24.60;;;12.50;;
10162;SDS011;5123;52.556;13.384;2024-02-28T01:50:02;15.47;;;10.30;;
10162;SDS011;5123;52.556;13.384;2024-02-28T01:52:35;21.10;;;11.33;;
10162;SDS011;5123;52.556;13.384;2024-02-28T01:55:08;19.00;;;11.57;;
10162;SDS011;5123;52.556;13.384;2024-02-28T01:57:41;18.40;;;9.73;;
10162;SDS011;5123;52.556;13.384;2024-02-28T02:00:16;17.80;;;10.37;;
10162;SDS011;5123;52.556;13.384;2024-02-28T02:02:50;17.17;;;10.33;;
10162;SDS011;5123;52.556;13.384;2024-02-28T02:05:23;15.90;;;9.77;;
10162;SDS011;5123;52.556;13.384;2024-02-28T02:07:56;17.97;;;11.07;;
10162;SDS011;5123;52.556;13.384;2024-02-28T02:10:29;18.17;;;10.30;;
10162;SDS011;5123;52.556;13.384;2024-02-28T02:13:05;16.83;;;9.90;;
10162;SDS011;5123;52.556;13.384;2024-02-28T02:15:39;18.23;;;10.10;;
10162;SDS011;5123;52.556;13.384;2024-02-28T02:18:14;16.93;;;9.97;;
10162;SDS011;5123;52.556;13.384;2024-02-28T02:20:49;15.70;;;10.10;;
10162;SDS011;5123;52.556;13.384;2024-02-28T02:23:23;14.63;;;9.30;;
10162;SDS011;5123;52.556;13.384;2024-02-28T02:25:56;13.50;;;9.77;;
10162;SDS011;5123;52.556;13.384;2024-02-28T02:28:31;14.93;;;10.03;;
10162;SDS011;5123;52.556;13.384;2024-02-28T02:31:04;15.83;;;9.50;;
10162;SDS011;5123;52.556;13.384;2024-02-28T02:33:37;12.90;;;8.57;;
10162;SDS011;5123;52.556;13.384;2024-02-28T02:36:10;14.20;;;8.50;;
10162;SDS011;5123;52.556;13.384;2024-02-28T02:38:44;13.20;;;7.60;;
10162;SDS011;5123;52.556;13.384;2024-02-28T02:41:17;12.83;;;8.07;;
10162;SDS011;5123;52.556;13.384;2024-02-28T02:43:50;16.27;;;8.70;;
10162;SDS011;5123;52.556;13.384;2024-02-28T02:46:23;12.53;;;7.73;;
10162;SDS011;5123;52.556;13.384;2024-02-28T02:48:55;12.67;;;7.17;;
10162;SDS011;5123;52.556;13.384;2024-02-28T02:51:28;10.23;;;6.83;;
10162;SDS011;5123;52.556;13.384;2024-02-28T02:54:03;12.10;;;7.77;;
10162;SDS011;5123;52.556;13.384;2024-02-28T02:56:36;11.10;;;6.50;;
10162;SDS011;5123;52.556;13.384;2024-02-28T02:59:11;11.33;;;7.43;;
10162;SDS011;5123;52.556;13.384;2024-02-28T03:01:44;11.80;;;7.30;;
10162;SDS011;5123;52.556;13.384;2024-02-28T03:04:17;11.27;;;6.70;;
10162;SDS011;5123;52.556;13.384;2024-02-28T03:06:49;9.63;;;6.13;;
10162;SDS011;5123;52.556;13.384;2024-02-28T03:09:24;10.90;;;7.00;;
10162;SDS011;5123;52.556;13.384;2024-02-28T03:11:57;12.17;;;6.67;;
10162;SDS011;5123;52.556;13.384;2024-02-28T03:14:31;9.93;;;6.90;;
10162;SDS011;5123;52.556;13.384;2024-02-28T03:17:04;11.30;;;7.03;;
10162;SDS011;5123;52.556;13.384;2024-02-28T03:19:39;8.80;;;6.00;;
10162;SDS011;5123;52.556;13.384;2024-02-28T03:22:12;13.50;;;7.60;;
10162;SDS011;5123;52.556;13.384;2024-02-28T03:24:49;11.30;;;7.20;;
10162;SDS011;5123;52.556;13.384;2024-02-28T03:27:21;10.30;;;6.43;;
10162;SDS011;5123;52.556;13.384;2024-02-28T03:29:55;8.93;;;6.43;;
10162;SDS011;5123;52.556;13.384;2024-02-28T03:32:28;10.97;;;6.93;;
10162;SDS011;5123;52.556;13.384;2024-02-28T03:35:00;8.83;;;6.27;;
10162;SDS011;5123;52.556;13.384;2024-02-28T03:37:35;9.47;;;6.73;;
10162;SDS011;5123;52.556;13.384;2024-02-28T03:40:15;9.03;;;5.33;;
10162;SDS011;5123;52.556;13.384;2024-02-28T03:42:47;7.90;;;5.90;;
10162;SDS011;5123;52.556;13.384;2024-02-28T03:45:20;8.67;;;6.03;;
10162;SDS011;5123;52.556;13.384;2024-02-28T03:47:53;6.90;;;5.60;;
10162;SDS011;5123;52.556;13.384;2024-02-28T03:50:25;11.17;;;6.50;;
10162;SDS011;5123;52.556;13.384;2024-02-28T03:52:58;7.00;;;5.37;;
10162;SDS011;5123;52.556;13.384;2024-02-28T03:55:33;6.63;;;4.40;;
10162;SDS011;5123;52.556;13.384;2024-02-28T03:58:06;9.20;;;5.70;;
10162;SDS011;5123;52.556;13.384;2024-02-28T04:00:40;6.70;;;4.87;;
10162;SDS011;5123;52.556;13.384;2024-02-28T04:03:15;7.40;;;4.93;;
10162;SDS011;5123;52.556;13.384;2024-02-28T04:05:51;6.80;;;4.27;;
10162;SDS011;5123;52.556;13.384;2024-02-28T04:08:23;6.30;;;4.60;;
10162;SDS011;5123;52.556;13.384;2024-02-28T04:10:57;5.20;;;3.40;;
10162;SDS011;5123;52.556;13.384;2024-02-28T04:13:30;4.47;;;3.83;;
10162;SDS011;5123;52.556;13.384;2024-02-28T04:16:05;6.47;;;4.23;;
10162;SDS011;5123;52.556;13.384;2024-02-28T04:18:38;6.07;;;4.90;;
10162;SDS011;5123;52.556;13.384;2024-02-28T04:21:10;6.87;;;5.03;;
10162;SDS011;5123;52.556;13.384;2024-02-28T04:23:46;7.20;;;5.33;;
10162;SDS011;5123;52.556;13.384;2024-02-28T04:26:22;6.63;;;4.90;;
10162;SDS011;5123;52.556;13.384;2024-02-28T04:28:55;7.23;;;5.17;;
10162;SDS011;5123;52.556;13.384;2024-02-28T04:31:37;7.17;;;5.10;;
10162;SDS011;5123;52.556;13.384;2024-02-28T04:34:10;6.97;;;5.20;;
10162;SDS011;5123;52.556;13.384;2024-02-28T04:36:42;8.60;;;6.13;;
10162;SDS011;5123;52.556;13.384;2024-02-28T04:39:18;7.07;;;5.03;;
10162;SDS011;5123;52.556;13.384;2024-02-28T04:41:52;9.47;;;4.87;;
10162;SDS011;5123;52.556;13.384;2024-02-28T04:44:24;8.93;;;5.40;;
10162;SDS011;5123;52.556;13.384;2024-02-28T04:46:57;7.53;;;5.50;;
10162;SDS011;5123;52.556;13.384;2024-02-28T04:49:30;7.43;;;5.27;;
10162;SDS011;5123;52.556;13.384;2024-02-28T04:52:03;7.50;;;5.50;;
10162;SDS011;5123;52.556;13.384;2024-02-28T04:54:36;8.80;;;5.40;;
10162;SDS011;5123;52.556;13.384;2024-02-28T04:57:12;8.57;;;6.07;;
10162;SDS011;5123;52.556;13.384;2024-02-28T04:59:46;7.27;;;5.30;;
10162;SDS011;5123;52.556;13.384;2024-02-28T05:02:19;7.73;;;5.63;;
10162;SDS011;5123;52.556;13.384;2024-02-28T05:04:53;8.70;;;5.83;;
10162;SDS011;5123;52.556;13.384;2024-02-28T05:07:29;9.07;;;5.70;;
10162;SDS011;5123;52.556;13.384;2024-02-28T05:10:02;7.07;;;5.40;;
10162;SDS011;5123;52.556;13.384;2024-02-28T05:12:36;7.87;;;5.43;;
10162;SDS011;5123;52.556;13.384;2024-02-28T05:15:09;7.20;;;4.40;;
10162;SDS011;5123;52.556;13.384;2024-02-28T05:17:42;7.97;;;5.17;;
10162;SDS011;5123;52.556;13.384;2024-02-28T05:20:15;7.90;;;5.57;;
10162;SDS011;5123;52.556;13.384;2024-02-28T05:22:48;7.20;;;5.10;;
10162;SDS011;5123;52.556;13.384;2024-02-28T05:25:24;6.93;;;4.77;;
10162;SDS011;5123;52.556;13.384;2024-02-28T05:27:58;8.17;;;4.70;;
10162;SDS011;5123;52.556;13.384;2024-02-28T05:30:31;8.30;;;5.73;;
10162;SDS011;5123;52.556;13.384;2024-02-28T05:33:04;7.57;;;5.47;;
10162;SDS011;5123;52.556;13.384;2024-02-28T05:35:36;7.53;;;5.67;;
10162;SDS011;5123;52.556;13.384;2024-02-28T05:38:09;8.20;;;5.57;;
10162;SDS011;5123;52.556;13.384;2024-02-28T05:40:42;7.13;;;5.50;;
10162;SDS011;5123;52.556;13.384;2024-02-28T05:43:18;7.83;;;5.33;;
10162;SDS011;5123;52.556;13.384;2024-02-28T05:45:53;6.83;;;4.90;;
10162;SDS011;5123;52.556;13.384;2024-02-28T05:48:26;5.37;;;4.43;;
10162;SDS011;5123;52.556;13.384;2024-02-28T05:51:00;6.00;;;5.13;;
10162;SDS011;5123;52.556;13.384;2024-02-28T05:53:33;6.47;;;5.07;;
10162;SDS011;5123;52.556;13.384;2024-02-28T05:56:07;6.63;;;5.17;;
10162;SDS011;5123;52.556;13.384;2024-02-28T05:58:47;8.13;;;5.50;;
10162;SDS011;5123;52.556;13.384;2024-02-28T06:01:20;7.50;;;4.50;;
10162;SDS011;5123;52.556;13.384;2024-02-28T06:03:53;7.67;;;5.17;;
10162;SDS011;5123;52.556;13.384;2024-02-28T06:06:25;5.27;;;4.60;;
10162;SDS011;5123;52.556;13.384;2024-02-28T06:08:58;6.57;;;4.10;;
10162;SDS011;5123;52.556;13.384;2024-02-28T06:11:32;7.40;;;5.47;;
10162;SDS011;5123;52.556;13.384;2024-02-28T06:14:06;6.57;;;5.20;;
10162;SDS011;5123;52.556;13.384;2024-02-28T06:16:40;7.53;;;5.23;;
10162;SDS011;5123;52.556;13.384;2024-02-28T06:19:13;6.63;;;5.80;;
10162;SDS011;5123;52.556;13.384;2024-02-28T06:21:47;6.77;;;5.60;;
10162;SDS011;5123;52.556;13.384;2024-02-28T06:24:21;10.47;;;5.97;;
10162;SDS011;5123;52.556;13.384;2024-02-28T06:26:54;9.13;;;6.63;;
10162;SDS011;5123;52.556;13.384;2024-02-28T06:29:28;10.70;;;7.30;;
10162;SDS011;5123;52.556;13.384;2024-02-28T06:32:02;11.30;;;7.10;;
10162;SDS011;5123;52.556;13.384;2024-02-28T06:34:35;11.70;;;7.40;;
10162;SDS011;5123;52.556;13.384;2024-02-28T06:37:08;11.50;;;7.87;;
10162;SDS011;5123;52.556;13.384;2024-02-28T06:39:40;11.03;;;7.20;;
10162;SDS011;5123;52.556;13.384;2024-02-28T06:42:13;9.20;;;6.93;;
10162;SDS011;5123;52.556;13.384;2024-02-28T06:44:47;12.40;;;7.70;;
10162;SDS011;5123;52.556;13.384;2024-02-28T06:47:20;9.10;;;6.83;;
10162;SDS011;5123;52.556;13.384;2024-02-28T06:49:53;9.97;;;7.47;;
10162;SDS011;5123;52.556;13.384;2024-02-28T06:52:26;8.50;;;6.43;;
10162;SDS011;5123;52.556;13.384;2024-02-28T06:54:59;7.80;;;6.03;;
10162;SDS011;5123;52.556;13.384;2024-02-28T06:57:34;6.27;;;3.73;;
10162;SDS011;5123;52.556;13.384;2024-02-28T07:00:09;10.30;;;7.03;;
10162;SDS011;5123;52.556;13.384;2024-02-28T07:02:43;9.77;;;6.87;;
10162;SDS011;5123;52.556;13.384;2024-02-28T07:05:18;12.73;;;6.33;;
10162;SDS011;5123;52.556;13.384;2024-02-28T07:07:51;11.20;;;7.63;;
10162;SDS011;5123;52.556;13.384;2024-02-28T07:10:24;10.93;;;7.47;;
10162;SDS011;5123;52.556;13.384;2024-02-28T07:12:59;10.47;;;7.63;;
10162;SDS011;5123;52.556;13.384;2024-02-28T07:15:33;9.70;;;6.70;;
10162;SDS011;5123;52.556;13.384;2024-02-28T07:18:06;11.03;;;6.73;;
10162;SDS011;5123;52.556;13.384;2024-02-28T07:20:39;8.17;;;6.27;;
10162;SDS011;5123;52.556;13.384;2024-02-28T07:23:14;9.70;;;6.70;;
10162;SDS011;5123;52.556;13.384;2024-02-28T07:25:47;9.47;;;6.67;;
10162;SDS011;5123;52.556;13.384;2024-02-28T07:28:22;10.83;;;6.53;;
10162;SDS011;5123;52.556;13.384;2024-02-28T07:30:58;9.73;;;6.63;;
10162;SDS011;5123;52.556;13.384;2024-02-28T07:33:31;8.50;;;5.77;;
10162;SDS011;5123;52.556;13.384;2024-02-28T07:36:04;9.70;;;6.90;;
10162;SDS011;5123;52.556;13.384;2024-02-28T07:38:37;8.67;;;6.43;;
10162;SDS011;5123;52.556;13.384;2024-02-28T07:41:12;9.13;;;6.20;;
10162;SDS011;5123;52.556;13.384;2024-02-28T07:43:44;9.53;;;6.40;;
10162;SDS011;5123;52.556;13.384;2024-02-28T07:46:18;7.90;;;5.80;;
10162;SDS011;5123;52.556;13.384;2024-02-28T07:48:51;8.13;;;6.07;;
10162;SDS011;5123;52.556;13.384;2024-02-28T07:51:24;8.83;;;5.60;;
10162;SDS011;5123;52.556;13.384;2024-02-28T07:53:57;8.00;;;5.60;;
10162;SDS011;5123;52.556;13.384;2024-02-28T07:56:31;8.37;;;6.27;;
10162;SDS011;5123;52.556;13.384;2024-02-28T07:59:03;7.37;;;5.47;;
10162;SDS011;5123;52.556;13.384;2024-02-28T08:01:37;8.33;;;5.80;;
10162;SDS011;5123;52.556;13.384;2024-02-28T08:04:11;8.60;;;5.53;;
10162;SDS011;5123;52.556;13.384;2024-02-28T08:06:44;7.93;;;5.70;;
10162;SDS011;5123;52.556;13.384;2024-02-28T08:09:16;9.13;;;5.70;;
10162;SDS011;5123;52.556;13.384;2024-02-28T08:11:50;8.23;;;6.00;;
10162;SDS011;5123;52.556;13.384;2024-02-28T08:14:22;8.53;;;5.73;;
10162;SDS011;5123;52.556;13.384;2024-02-28T08:16:56;10.00;;;5.60;;
10162;SDS011;5123;52.556;13.384;2024-02-28T08:19:29;9.27;;;6.07;;
10162;SDS011;5123;52.556;13.384;2024-02-28T08:22:02;8.50;;;5.40;;
10162;SDS011;5123;52.556;13.384;2024-02-28T08:24:35;7.13;;;5.27;;
10162;SDS011;5123;52.556;13.384;2024-02-28T08:27:08;8.23;;;5.90;;
10162;SDS011;5123;52.556;13.384;2024-02-28T08:29:41;11.20;;;5.87;;
10162;SDS011;5123;52.556;13.384;2024-02-28T08:32:16;8.43;;;5.53;;
10162;SDS011;5123;52.556;13.384;2024-02-28T08:34:49;6.70;;;4.80;;
10162;SDS011;5123;52.556;13.384;2024-02-28T08:37:22;6.33;;;5.27;;
10162;SDS011;5123;52.556;13.384;2024-02-28T08:39:54;7.23;;;4.73;;
10162;SDS011;5123;52.556;13.384;2024-02-28T08:42:29;8.83;;;5.03;;
10162;SDS011;5123;52.556;13.384;2024-02-28T08:45:02;9.90;;;6.23;;
10162;SDS011;5123;52.556;13.384;2024-02-28T08:47:36;9.23;;;6.23;;
10162;SDS011;5123;52.556;13.384;2024-02-28T08:50:09;8.80;;;6.97;;
10162;SDS011;5123;52.556;13.384;2024-02-28T08:52:42;10.97;;;6.70;;
10162;SDS011;5123;52.556;13.384;2024-02-28T08:55:15;9.97;;;6.57;;
10162;SDS011;5123;52.556;13.384;2024-02-28T08:57:50;11.57;;;7.70;;
10162;SDS011;5123;52.556;13.384;2024-02-28T09:00:22;10.67;;;7.40;;
10162;SDS011;5123;52.556;13.384;2024-02-28T09:02:56;12.60;;;8.17;;
10162;SDS011;5123;52.556;13.384;2024-02-28T09:05:29;9.10;;;7.00;;
10162;SDS011;5123;52.556;13.384;2024-02-28T09:08:02;10.40;;;7.73;;
10162;SDS011;5123;52.556;13.384;2024-02-28T09:10:35;11.87;;;7.80;;
10162;SDS011;5123;52.556;13.384;2024-02-28T09:13:12;10.20;;;7.27;;
10162;SDS011;5123;52.556;13.384;2024-02-28T09:15:45;12.40;;;7.63;;
10162;SDS011;5123;52.556;13.384;2024-02-28T09:18:20;8.77;;;6.50;;
10162;SDS011;5123;52.556;13.384;2024-02-28T09:20:52;11.47;;;7.53;;
10162;SDS011;5123;52.556;13.384;2024-02-28T09:23:25;12.90;;;8.53;;
10162;SDS011;5123;52.556;13.384;2024-02-28T09:25:58;13.73;;;8.80;;
10162;SDS011;5123;52.556;13.384;2024-02-28T09:28:32;12.07;;;8.17;;
10162;SDS011;5123;52.556;13.384;2024-02-28T09:31:07;13.40;;;9.57;;
10162;SDS011;5123;52.556;13.384;2024-02-28T09:33:42;12.47;;;8.47;;
10162;SDS011;5123;52.556;13.384;2024-02-28T09:36:16;14.67;;;9.50;;
10162;SDS011;5123;52.556;13.384;2024-02-28T09:38:50;14.27;;;8.97;;
10162;SDS011;5123;52.556;13.384;2024-02-28T09:41:22;9.30;;;6.47;;
10162;SDS011;5123;52.556;13.384;2024-02-28T09:44:00;12.60;;;8.07;;
10162;SDS011;5123;52.556;13.384;2024-02-28T09:46:34;13.63;;;8.17;;
10162;SDS011;5123;52.556;13.384;2024-02-28T09:49:09;13.40;;;8.90;;
10162;SDS011;5123;52.556;13.384;2024-02-28T09:51:48;11.37;;;8.43;;
10162;SDS011;5123;52.556;13.384;2024-02-28T09:54:34;12.77;;;8.60;;
10162;SDS011;5123;52.556;13.384;2024-02-28T09:57:07;11.03;;;7.40;;
10162;SDS011;5123;52.556;13.384;2024-02-28T09:59:40;11.50;;;7.87;;
10162;SDS011;5123;52.556;13.384;2024-02-28T10:02:28;16.73;;;9.80;;
10162;SDS011;5123;52.556;13.384;2024-02-28T10:05:05;12.00;;;7.77;;
10162;SDS011;5123;52.556;13.384;2024-02-28T10:07:38;13.77;;;9.43;;
10162;SDS011;5123;52.556;13.384;2024-02-28T10:10:11;13.70;;;8.90;;
10162;SDS011;5123;52.556;13.384;2024-02-28T10:12:44;15.13;;;9.13;;
10162;SDS011;5123;52.556;13.384;2024-02-28T10:15:18;14.40;;;9.50;;
10162;SDS011;5123;52.556;13.384;2024-02-28T10:17:50;15.37;;;10.27;;
10162;SDS011;5123;52.556;13.384;2024-02-28T10:20:25;17.03;;;10.10;;
10162;SDS011;5123;52.556;13.384;2024-02-28T10:22:57;13.67;;;9.17;;
10162;SDS011;5123;52.556;13.384;2024-02-28T10:25:31;17.50;;;10.93;;
10162;SDS011;5123;52.556;13.384;2024-02-28T10:28:12;16.93;;;10.63;;
10162;SDS011;5123;52.556;13.384;2024-02-28T10:30:46;15.20;;;10.10;;
10162;SDS011;5123;52.556;13.384;2024-02-28T10:33:18;15.93;;;10.57;;
10162;SDS011;5123;52.556;13.384;2024-02-28T10:35:53;16.63;;;10.07;;
10162;SDS011;5123;52.556;13.384;2024-02-28T10:38:26;14.17;;;9.80;;
10162;SDS011;5123;52.556;13.384;2024-02-28T10:41:01;17.00;;;11.13;;
10162;SDS011;5123;52.556;13.384;2024-02-28T10:43:34;16.33;;;11.70;;
10162;SDS011;5123;52.556;13.384;2024-02-28T10:46:07;15.87;;;10.10;;
10162;SDS011;5123;52.556;13.384;2024-02-28T10:49:01;14.43;;;9.13;;
10162;SDS011;5123;52.556;13.384;2024-02-28T10:54:51;15.83;;;10.77;;
10162;SDS011;5123;52.556;13.384;2024-02-28T10:58:01;17.97;;;11.40;;
10162;SDS011;5123;52.556;13.384;2024-02-28T11:00:48;20.87;;;13.03;;
10162;SDS011;5123;52.556;13.384;2024-02-28T11:03:26;20.47;;;11.50;;
10162;SDS011;5123;52.556;13.384;2024-02-28T11:05:59;16.23;;;10.47;;
10162;SDS011;5123;52.556;13.384;2024-02-28T11:08:32;18.10;;;10.33;;
10162;SDS011;5123;52.556;13.384;2024-02-28T11:11:08;15.40;;;10.77;;
10162;SDS011;5123;52.556;13.384;2024-02-28T11:13:51;15.23;;;10.00;;
10162;SDS011;5123;52.556;13.384;2024-02-28T11:16:27;17.10;;;11.23;;
10162;SDS011;5123;52.556;13.384;2024-02-28T11:19:00;18.80;;;10.63;;
10162;SDS011;5123;52.556;13.384;2024-02-28T11:21:35;15.83;;;10.83;;
10162;SDS011;5123;52.556;13.384;2024-02-28T11:24:12;19.47;;;10.40;;
10162;SDS011;5123;52.556;13.384;2024-02-28T11:26:51;16.07;;;10.00;;
10162;SDS011;5123;52.556;13.384;2024-02-28T11:29:24;16.60;;;11.20;;
10162;SDS011;5123;52.556;13.384;2024-02-28T11:31:57;16.80;;;9.87;;
10162;SDS011;5123;52.556;13.384;2024-02-28T11:34:30;16.97;;;10.60;;
10162;SDS011;5123;52.556;13.384;2024-02-28T11:37:03;17.03;;;9.43;;
10162;SDS011;5123;52.556;13.384;2024-02-28T11:39:36;14.37;;;9.13;;
10162;SDS011;5123;52.556;13.384;2024-02-28T11:42:13;14.60;;;10.60;;
10162;SDS011;5123;52.556;13.384;2024-02-28T11:44:52;13.57;;;7.30;;
10162;SDS011;5123;52.556;13.384;2024-02-28T11:47:31;13.97;;;8.37;;
10162;SDS011;5123;52.556;13.384;2024-02-28T11:50:04;13.60;;;9.10;;
10162;SDS011;5123;52.556;13.384;2024-02-28T11:52:40;14.17;;;8.80;;
10162;SDS011;5123;52.556;13.384;2024-02-28T11:55:13;13.47;;;8.80;;
10162;SDS011;5123;52.556;13.384;2024-02-28T11:57:47;14.00;;;8.53;;
10162;SDS011;5123;52.556;13.384;2024-02-28T12:00:20;13.10;;;7.93;;
10162;SDS011;5123;52.556;13.384;2024-02-28T12:03:03;14.60;;;8.53;;
10162;SDS011;5123;52.556;13.384;2024-02-28T12:05:37;10.73;;;7.13;;
10162;SDS011;5123;52.556;13.384;2024-02-28T12:08:10;14.23;;;9.23;;
10162;SDS011;5123;52.556;13.384;2024-02-28T12:10:43;11.20;;;8.30;;
10162;SDS011;5123;52.556;13.384;2024-02-28T12:13:17;14.43;;;9.33;;
10162;SDS011;5123;52.556;13.384;2024-02-28T12:15:50;12.53;;;8.30;;
10162;SDS011;5123;52.556;13.384;2024-02-28T12:18:25;13.37;;;8.40;;
10162;SDS011;5123;52.556;13.384;2024-02-28T12:20:58;14.33;;;8.73;;
10162;SDS011;5123;52.556;13.384;2024-02-28T12:23:31;12.27;;;8.13;;
10162;SDS011;5123;52.556;13.384;2024-02-28T12:26:04;10.37;;;7.83;;
10162;SDS011;5123;52.556;13.384;2024-02-28T12:28:38;11.50;;;7.70;;
10162;SDS011;5123;52.556;13.384;2024-02-28T12:31:11;10.53;;;7.90;;
10162;SDS011;5123;52.556;13.384;2024-02-28T12:33:47;13.33;;;7.83;;
10162;SDS011;5123;52.556;13.384;2024-02-28T12:36:20;12.40;;;7.67;;
10162;SDS011;5123;52.556;13.384;2024-02-28T12:38:53;10.37;;;7.97;;
10162;SDS011;5123;52.556;13.384;2024-02-28T12:41:26;10.87;;;6.63;;
10162;SDS011;5123;52.556;13.384;2024-02-28T12:44:00;9.47;;;7.30;;
10162;SDS011;5123;52.556;13.384;2024-02-28T12:46:34;10.93;;;8.10;;
10162;SDS011;5123;52.556;13.384;2024-02-28T12:49:07;12.60;;;7.97;;
10162;SDS011;5123;52.556;13.384;2024-02-28T12:51:41;10.47;;;7.53;;
10162;SDS011;5123;52.556;13.384;2024-02-28T12:54:15;11.73;;;7.10;;
10162;SDS011;5123;52.556;13.384;2024-02-28T12:56:50;12.10;;;7.83;;
10162;SDS011;5123;52.556;13.384;2024-02-28T12:59:24;13.13;;;8.73;;
10162;SDS011;5123;52.556;13.384;2024-02-28T13:01:57;12.53;;;8.73;;
10162;SDS011;5123;52.556;13.384;2024-02-28T13:04:30;12.87;;;8.10;;
10162;SDS011;5123;52.556;13.384;2024-02-28T13:07:03;12.73;;;8.60;;
10162;SDS011;5123;52.556;13.384;2024-02-28T13:09:36;12.73;;;7.73;;
10162;SDS011;5123;52.556;13.384;2024-02-28T13:12:09;11.23;;;8.53;;
10162;SDS011;5123;52.556;13.384;2024-02-28T13:14:43;11.37;;;7.50;;
10162;SDS011;5123;52.556;13.384;2024-02-28T13:17:16;12.83;;;8.43;;
10162;SDS011;5123;52.556;13.384;2024-02-28T13:19:51;11.70;;;8.07;;
10162;SDS011;5123;52.556;13.384;2024-02-28T13:22:23;13.20;;;7.80;;
10162;SDS011;5123;52.556;13.384;2024-02-28T13:24:56;11.80;;;7.93;;
10162;SDS011;5123;52.556;13.384;2024-02-28T13:27:30;10.57;;;8.00;;
10162;SDS011;5123;52.556;13.384;2024-02-28T13:30:05;11.70;;;8.77;;
10162;SDS011;5123;52.556;13.384;2024-02-28T13:32:37;11.13;;;7.00;;
10162;SDS011;5123;52.556;13.384;2024-02-28T13:35:10;12.13;;;9.10;;
10162;SDS011;5123;52.556;13.384;2024-02-28T13:37:45;13.73;;;10.23;;
10162;SDS011;5123;52.556;13.384;2024-02-28T13:40:18;23.10;;;16.60;;
10162;SDS011;5123;52.556;13.384;2024-02-28T13:42:50;16.40;;;10.60;;
10162;SDS011;5123;52.556;13.384;2024-02-28T13:45:24;13.47;;;10.23;;
10162;SDS011;5123;52.556;13.384;2024-02-28T13:47:57;17.83;;;11.37;;
10162;SDS011;5123;52.556;13.384;2024-02-28T13:50:30;13.13;;;9.63;;
10162;SDS011;5123;52.556;13.384;2024-02-28T13:53:03;15.57;;;10.47;;
10162;SDS011;5123;52.556;13.384;2024-02-28T13:55:36;15.73;;;10.37;;
10162;SDS011;5123;52.556;13.384;2024-02-28T13:58:11;17.53;;;11.60;;
10162;SDS011;5123;52.556;13.384;2024-02-28T14:00:46;14.67;;;9.87;;
10162;SDS011;5123;52.556;13.384;2024-02-28T14:03:19;14.23;;;9.70;;
10162;SDS011;5123;52.556;13.384;2024-02-28T14:05:52;14.07;;;9.73;;
10162;SDS011;5123;52.556;13.384;2024-02-28T14:08:25;14.80;;;10.57;;
10162;SDS011;5123;52.556;13.384;2024-02-28T14:11:05;14.50;;;10.07;;
10162;SDS011;5123;52.556;13.384;2024-02-28T14:13:38;14.87;;;10.13;;
10162;SDS011;5123;52.556;13.384;2024-02-28T14:16:13;16.93;;;12.00;;
10162;SDS011;5123;52.556;13.384;2024-02-28T14:18:47;18.63;;;13.40;;
10162;SDS011;5123;52.556;13.384;2024-02-28T14:21:21;18.20;;;13.33;;
10162;SDS011;5123;52.556;13.384;2024-02-28T14:23:55;22.00;;;15.00;;
10162;SDS011;5123;52.556;13.384;2024-02-28T14:26:28;21.53;;;13.67;;
10162;SDS011;5123;52.556;13.384;2024-02-28T14:29:01;20.03;;;13.53;;
10162;SDS011;5123;52.556;13.384;2024-02-28T14:31:35;19.53;;;14.23;;
10162;SDS011;5123;52.556;13.384;2024-02-28T14:34:07;20.60;;;14.60;;
10162;SDS011;5123;52.556;13.384;2024-02-28T14:36:40;17.93;;;14.33;;
10162;SDS011;5123;52.556;13.384;2024-02-28T14:39:14;21.73;;;15.07;;
10162;SDS011;5123;52.556;13.384;2024-02-28T14:41:49;19.13;;;14.70;;
10162;SDS011;5123;52.556;13.384;2024-02-28T14:44:21;21.20;;;15.53;;
10162;SDS011;5123;52.556;13.384;2024-02-28T14:47:03;23.47;;;15.40;;
10162;SDS011;5123;52.556;13.384;2024-02-28T14:49:36;20.97;;;15.90;;
10162;SDS011;5123;52.556;13.384;2024-02-28T14:52:09;20.20;;;13.67;;
10162;SDS011;5123;52.556;13.384;2024-02-28T14:54:42;21.30;;;14.63;;
10162;SDS011;5123;52.556;13.384;2024-02-28T14:57:16;29.10;;;19.63;;
10162;SDS011;5123;52.556;13.384;2024-02-28T14:59:49;38.67;;;18.80;;
10162;SDS011;5123;52.556;13.384;2024-02-28T15:02:23;18.47;;;12.70;;
10162;SDS011;5123;52.556;13.384;2024-02-28T15:04:56;21.23;;;13.23;;
10162;SDS011;5123;52.556;13.384;2024-02-28T15:07:29;18.73;;;12.90;;
10162;SDS011;5123;52.556;13.384;2024-02-28T15:10:03;17.20;;;11.50;;
10162;SDS011;5123;52.556;13.384;2024-02-28T15:12:36;19.17;;;13.07;;
10162;SDS011;5123;52.556;13.384;2024-02-28T15:15:16;14.57;;;9.50;;
10162;SDS011;5123;52.556;13.384;2024-02-28T15:17:53;14.43;;;10.00;;